createdAt,value
2018-09-08T00:12:57.529Z,55.30
2018-09-08T00:15:24.827Z,55.20
2018-09-08T00:17:51.870Z,55.20
2018-09-08T00:20:18.736Z,55.20
2018-09-08T00:22:45.704Z,55.20
2018-09-08T00:27:53.296Z,55.20
2018-09-08T00:30:20.320Z,55.20
2018-09-08T00:40:42.056Z,55.10
2018-09-08T00:43:15.668Z,55.10
2018-09-08T00:45:42.990Z,55.00
2018-09-08T00:53:29.489Z,54.90
2018-09-08T00:55:56.528Z,55.00
2018-09-08T00:58:23.609Z,55.00
2018-09-08T01:00:50.539Z,55.00
2018-09-08T01:03:18.121Z,54.90
2018-09-08T01:05:55.489Z,54.90
2018-09-08T01:08:23.414Z,54.90
2018-09-08T01:10:50.238Z,54.90
2018-09-08T01:13:32.170Z,54.80
2018-09-08T01:15:59.166Z,54.80
2018-09-08T01:18:28.674Z,54.80
2018-09-08T01:20:55.517Z,54.70
2018-09-08T01:23:22.490Z,54.70
2018-09-08T01:28:26.745Z,54.70
2018-09-08T01:30:53.864Z,55.30
2018-09-08T01:33:21.011Z,54.80
2018-09-08T01:38:56.757Z,54.60
2018-09-08T01:41:23.589Z,54.60
2018-09-08T01:43:50.418Z,54.60
2018-09-08T01:46:17.251Z,54.60
2018-09-08T01:48:44.239Z,54.60
2018-09-08T01:51:12.266Z,54.60
2018-09-08T01:53:39.082Z,54.50
2018-09-08T01:56:05.983Z,54.60
2018-09-08T01:58:32.814Z,54.50
2018-09-08T02:00:59.663Z,54.50
2018-09-08T02:03:26.666Z,54.50
2018-09-08T02:05:53.515Z,54.50
2018-09-08T02:08:20.329Z,54.50
2018-09-08T02:10:47.205Z,54.50
2018-09-08T02:13:14.051Z,54.40
2018-09-08T02:15:40.878Z,54.40
2018-09-08T02:18:07.706Z,54.40
2018-09-08T02:20:34.530Z,54.30
2018-09-08T02:23:01.358Z,54.40
2018-09-08T02:25:28.373Z,54.40
2018-09-08T02:27:55.143Z,54.30
2018-09-08T02:30:22.030Z,54.30
2018-09-08T02:32:48.878Z,54.30
2018-09-08T02:35:15.926Z,54.30
2018-09-08T02:37:43.527Z,54.30
2018-09-08T02:42:48.040Z,54.30
2018-09-08T02:45:14.920Z,54.20
2018-09-08T02:47:41.907Z,54.20
2018-09-08T02:50:08.770Z,54.20
2018-09-08T02:52:35.648Z,54.20
2018-09-08T02:55:02.759Z,54.20
2018-09-08T02:57:29.630Z,54.20
2018-09-08T02:59:56.459Z,54.10
2018-09-08T03:02:23.374Z,54.90
2018-09-08T03:07:28.866Z,54.10
2018-09-08T03:09:57.775Z,54.10
2018-09-08T03:12:24.599Z,54.10
2018-09-08T03:14:51.596Z,54.10
2018-09-08T03:17:19.100Z,54.00
2018-09-08T03:19:45.972Z,54.00
2018-09-08T03:22:12.844Z,54.70
2018-09-08T03:24:39.913Z,54.00
2018-09-08T03:27:06.876Z,54.00
2018-09-08T03:29:33.759Z,54.00
2018-09-08T03:32:00.718Z,53.90
2018-09-08T03:37:17.527Z,53.90
2018-09-08T03:39:44.430Z,53.80
2018-09-08T03:42:11.326Z,53.80
2018-09-08T03:44:38.338Z,54.50
2018-09-08T03:47:05.277Z,53.80
2018-09-08T03:49:32.123Z,53.80
2018-09-08T03:51:58.996Z,54.10
2018-09-08T03:54:26.080Z,53.80
2018-09-08T03:56:52.923Z,53.70
2018-09-08T03:59:19.856Z,53.80
2018-09-08T04:01:46.777Z,53.80
2018-09-08T04:04:13.649Z,53.70
2018-09-08T04:06:40.807Z,53.80
2018-09-08T04:09:08.757Z,53.70
2018-09-08T04:11:40.336Z,53.70
2018-09-08T04:14:15.893Z,53.70
2018-09-08T04:16:42.973Z,53.70
2018-09-08T04:19:12.939Z,53.70
2018-09-08T04:27:13.914Z,53.70
2018-09-08T04:29:43.409Z,53.60
2018-09-08T04:34:51.587Z,53.60
2018-09-08T04:37:20.193Z,53.60
2018-09-08T04:39:47.605Z,53.60
2018-09-08T04:42:14.720Z,53.60
2018-09-08T04:44:41.714Z,53.50
2018-09-08T04:47:08.552Z,53.50
2018-09-08T04:49:35.369Z,53.50
2018-09-08T04:52:02.185Z,53.50
2018-09-08T04:54:35.760Z,53.50
2018-09-08T04:57:02.602Z,53.40
2018-09-08T04:59:40.802Z,53.50
2018-09-08T05:02:07.643Z,53.40
2018-09-08T05:07:13.588Z,53.40
2018-09-08T05:09:40.848Z,53.40
2018-09-08T05:12:07.680Z,53.30
2018-09-08T05:14:34.550Z,53.30
2018-09-08T05:17:01.378Z,53.30
2018-09-08T05:19:28.379Z,53.30
2018-09-08T05:21:55.886Z,53.30
2018-09-08T05:24:22.729Z,53.30
2018-09-08T05:26:49.552Z,53.30
2018-09-08T05:29:16.365Z,53.20
2018-09-08T05:31:43.190Z,53.30
2018-09-08T05:34:10.018Z,53.30
2018-09-08T05:36:36.847Z,53.30
2018-09-08T05:39:03.676Z,53.30
2018-09-08T05:41:30.505Z,53.20
2018-09-08T05:43:57.341Z,53.20
2018-09-08T05:46:24.167Z,53.20
2018-09-08T05:48:51.017Z,53.20
2018-09-08T05:51:17.815Z,53.20
2018-09-08T05:53:44.643Z,53.20
2018-09-08T05:56:11.486Z,53.10
2018-09-08T05:58:38.314Z,53.10
2018-09-08T06:01:05.157Z,53.10
2018-09-08T06:03:31.983Z,53.10
2018-09-08T06:05:58.856Z,53.10
2018-09-08T06:08:25.681Z,53.10
2018-09-08T06:10:52.503Z,53.10
2018-09-08T06:13:19.333Z,53.00
2018-09-08T06:15:46.235Z,53.10
2018-09-08T06:18:13.092Z,53.10
2018-09-08T06:20:39.888Z,53.10
2018-09-08T06:23:06.714Z,53.10
2018-09-08T06:25:33.616Z,53.10
2018-09-08T06:28:00.433Z,53.10
2018-09-08T06:30:27.279Z,53.00
2018-09-08T06:32:54.095Z,53.10
2018-09-08T06:35:21.110Z,53.10
2018-09-08T06:37:47.806Z,53.00
2018-09-08T06:40:14.638Z,53.00
2018-09-08T06:42:41.477Z,53.00
2018-09-08T06:45:08.507Z,53.00
2018-09-08T06:47:35.206Z,53.00
2018-09-08T06:50:02.263Z,53.00
2018-09-08T06:52:29.093Z,53.00
2018-09-08T06:54:56.949Z,53.10
2018-09-08T06:57:23.799Z,53.10
2018-09-08T06:59:50.625Z,53.20
2018-09-08T07:02:18.750Z,53.30
2018-09-08T07:04:45.560Z,53.20
2018-09-08T07:07:12.395Z,53.10
2018-09-08T07:09:39.205Z,53.10
2018-09-08T07:12:06.044Z,53.20
2018-09-08T07:14:33.329Z,53.10
2018-09-08T07:17:00.186Z,53.20
2018-09-08T07:19:27.032Z,53.10
2018-09-08T07:21:53.847Z,53.10
2018-09-08T07:24:20.705Z,53.20
2018-09-08T07:26:47.541Z,53.20
2018-09-08T07:29:14.603Z,53.20
2018-09-08T07:31:41.411Z,53.10
2018-09-08T07:34:08.239Z,53.00
2018-09-08T07:36:35.108Z,52.90
2018-09-08T07:39:01.934Z,52.70
2018-09-08T07:41:28.759Z,52.80
2018-09-08T07:43:55.591Z,52.70
2018-09-08T07:46:22.414Z,52.70
2018-09-08T07:48:49.285Z,52.70
2018-09-08T07:51:16.118Z,52.80
2018-09-08T07:53:42.998Z,52.70
2018-09-08T07:56:09.880Z,52.60
2018-09-08T07:58:36.709Z,52.70
2018-09-08T08:01:03.572Z,52.60
2018-09-08T08:03:30.394Z,52.70
2018-09-08T08:05:58.241Z,52.70
2018-09-08T08:08:25.127Z,52.70
2018-09-08T08:10:51.968Z,52.80
2018-09-08T08:13:18.807Z,52.90
2018-09-08T08:15:45.724Z,52.80
2018-09-08T08:18:12.568Z,52.90
2018-09-08T08:20:39.405Z,53.00
2018-09-08T08:23:06.294Z,52.90
2018-09-08T08:25:33.214Z,53.00
2018-09-08T08:28:00.039Z,52.90
2018-09-08T08:30:26.869Z,52.90
2018-09-08T08:32:53.692Z,52.90
2018-09-08T08:35:20.585Z,52.60
2018-09-08T08:37:47.780Z,51.70
2018-09-08T08:40:14.595Z,51.30
2018-09-08T08:42:41.444Z,51.30
2018-09-08T08:45:08.362Z,50.00
2018-09-08T08:47:35.192Z,49.70
2018-09-08T08:50:02.030Z,49.60
2018-09-08T08:52:29.396Z,49.40
2018-09-08T08:54:56.348Z,48.70
2018-09-08T08:57:23.452Z,48.90
2018-09-08T08:59:50.276Z,48.90
2018-09-08T09:02:17.975Z,49.00
2018-09-08T09:04:45.383Z,48.50
2018-09-08T09:07:16.672Z,47.90
2018-09-08T09:09:47.556Z,48.90
2018-09-08T09:31:18.759Z,45.70
2018-09-08T09:33:46.040Z,45.40
2018-09-08T09:36:17.080Z,45.80
2018-09-08T09:38:44.333Z,45.50
2018-09-08T09:41:13.289Z,44.20
2018-09-08T09:43:41.355Z,44.80
2018-09-08T09:50:33.259Z,44.90
2018-09-08T09:53:00.360Z,45.10
2018-09-08T09:58:15.546Z,45.20
2018-09-08T10:00:57.607Z,45.20
2018-09-08T10:03:24.705Z,44.60
2018-09-08T10:05:52.054Z,45.00
2018-09-08T10:08:20.469Z,45.00
2018-09-08T10:10:48.032Z,45.80
2018-09-08T10:13:15.244Z,45.80
2018-09-08T10:15:45.429Z,46.10
2018-09-08T10:18:12.822Z,46.10
2018-09-08T10:20:40.079Z,46.30
2018-09-08T10:23:09.574Z,46.30
2018-09-08T10:30:51.438Z,46.10
2018-09-08T10:39:04.386Z,45.60
2018-09-08T10:41:34.495Z,45.60
2018-09-08T10:44:02.111Z,45.90
2018-09-08T10:46:29.195Z,46.00
2018-09-08T10:48:56.549Z,46.20
2018-09-08T10:51:23.905Z,46.50
2018-09-08T10:53:51.363Z,45.90
2018-09-08T10:56:18.740Z,46.10
2018-09-08T10:58:46.136Z,46.80
2018-09-08T11:01:13.431Z,46.90
2018-09-08T11:03:40.802Z,46.60
2018-09-08T11:06:08.038Z,46.70
2018-09-08T11:08:35.892Z,47.00
2018-09-08T11:11:03.014Z,47.00
2018-09-08T11:13:31.762Z,46.70
2018-09-08T11:16:00.351Z,46.90
2018-09-08T11:21:25.446Z,47.00
2018-09-08T11:23:53.136Z,47.20
2018-09-08T11:26:20.579Z,46.80
2018-09-08T11:28:47.503Z,46.30
2018-09-08T11:31:14.841Z,46.60
2018-09-08T11:33:42.035Z,46.80
2018-09-08T11:39:05.845Z,47.10
2018-09-08T11:41:34.603Z,47.20
2018-09-08T11:44:02.558Z,47.20
2018-09-08T11:46:30.943Z,47.30
2018-09-08T11:48:58.510Z,47.30
2018-09-08T11:51:26.889Z,46.70
2018-09-08T11:53:54.410Z,47.00
2018-09-08T11:56:21.700Z,46.80
2018-09-08T12:13:29.469Z,47.10
2018-09-08T12:16:00.088Z,47.50
2018-09-08T12:24:02.222Z,47.70
2018-09-08T12:26:35.515Z,47.50
2018-09-08T12:29:03.078Z,47.30
2018-09-08T12:31:30.388Z,47.50
2018-09-08T12:33:57.894Z,47.50
2018-09-08T12:36:25.241Z,47.10
2018-09-08T12:52:06.178Z,48.40
2018-09-08T12:54:33.563Z,48.40
2018-09-08T12:57:00.733Z,48.20
2018-09-08T13:02:01.556Z,48.10
2018-09-08T13:04:29.359Z,47.80
2018-09-08T13:06:56.693Z,48.80
2018-09-08T13:09:26.756Z,48.00
2018-09-08T13:11:54.655Z,47.60
2018-09-08T13:14:21.896Z,47.80
2018-09-08T13:19:54.218Z,48.60
2018-09-08T13:27:38.458Z,48.60
2018-09-08T13:30:05.482Z,48.40
2018-09-08T13:32:37.887Z,48.20
2018-09-08T13:35:06.099Z,48.30
2018-09-08T13:40:08.464Z,47.20
2018-09-08T13:42:36.354Z,48.10
2018-09-08T13:45:03.588Z,47.70
2018-09-08T13:47:39.549Z,48.30
2018-09-08T13:55:28.157Z,48.40
2018-09-08T13:57:55.317Z,48.00
2018-09-08T14:00:26.223Z,48.40
2018-09-08T14:08:31.728Z,48.00
2018-09-08T14:11:00.719Z,48.40
2018-09-08T14:16:21.435Z,48.00
2018-09-08T14:21:20.884Z,47.00
2018-09-08T14:23:49.505Z,47.70
2018-09-08T14:26:25.702Z,47.60
2018-09-08T14:28:53.196Z,47.70
2018-09-08T14:34:12.303Z,47.80
2018-09-08T14:36:41.470Z,47.60
2018-09-08T14:39:09.410Z,48.10
2018-09-08T14:41:37.379Z,48.90
2018-09-08T14:56:17.568Z,49.20
2018-09-08T14:58:44.438Z,48.20
2018-09-08T15:01:11.507Z,48.40
2018-09-08T15:03:38.475Z,48.40
2018-09-08T15:06:05.703Z,49.00
2018-09-08T15:15:16.821Z,50.10
2018-09-08T15:17:54.222Z,49.70
2018-09-08T15:20:21.266Z,49.80
2018-09-08T15:22:48.367Z,49.80
2018-09-08T15:25:15.541Z,50.10
2018-09-08T15:30:20.360Z,50.00
2018-09-08T15:32:47.507Z,50.30
2018-09-08T15:35:14.761Z,50.30
2018-09-08T15:37:42.790Z,50.40
2018-09-08T15:40:10.572Z,50.40
2018-09-08T15:49:13.909Z,50.80
2018-09-08T15:51:57.082Z,50.80
2018-09-08T15:57:21.732Z,50.80
2018-09-08T15:59:48.798Z,50.70
2018-09-08T16:05:20.509Z,50.60
2018-09-08T16:07:48.155Z,50.80
2018-09-08T16:12:56.341Z,50.80
2018-09-08T16:15:23.939Z,51.20
2018-09-08T16:17:50.953Z,51.40
2018-09-08T16:20:22.124Z,51.20
2018-09-08T16:22:49.108Z,51.20
2018-09-08T16:25:25.093Z,51.20
2018-09-08T16:33:26.450Z,51.30
2018-09-08T16:35:53.764Z,51.30
2018-09-08T16:38:21.911Z,51.50
2018-09-08T16:43:28.498Z,51.80
2018-09-08T16:58:57.714Z,52.20
2018-09-08T17:10:32.840Z,52.40
2018-09-08T17:12:59.759Z,52.80
2018-09-08T17:15:26.836Z,52.80
2018-09-08T17:20:54.251Z,52.90
2018-09-08T17:23:22.201Z,52.80
2018-09-08T17:25:50.092Z,52.90
2018-09-08T17:33:32.449Z,53.10
2018-09-08T18:14:54.304Z,53.30
2018-09-08T18:17:22.617Z,53.40
2018-09-08T18:20:06.644Z,53.60
2018-09-08T18:29:51.424Z,53.70
2018-09-08T18:32:20.768Z,53.60
2018-09-08T18:45:22.958Z,53.80
2018-09-08T18:47:49.827Z,53.90
2018-09-08T18:50:16.649Z,53.60
2018-09-08T18:52:43.526Z,53.60
2018-09-08T18:55:10.608Z,53.90
2018-09-08T18:57:37.430Z,54.10
2018-09-08T19:00:04.264Z,54.30
2018-09-08T19:02:31.938Z,54.40
2018-09-08T19:04:58.969Z,54.40
2018-09-08T19:07:25.818Z,54.70
2018-09-08T19:09:52.707Z,54.70
2018-09-08T19:12:19.525Z,54.90
2018-09-08T19:14:46.517Z,54.80
2018-09-08T19:17:13.423Z,54.30
2018-09-08T19:19:40.273Z,54.40
2018-09-08T19:22:07.119Z,54.50
2018-09-08T19:24:34.100Z,54.50
2018-09-08T19:27:01.004Z,54.50
2018-09-08T19:29:27.894Z,54.50
2018-09-08T19:31:54.707Z,54.50
2018-09-08T19:34:21.673Z,54.50
2018-09-08T19:36:48.509Z,54.40
2018-09-08T19:39:15.339Z,54.40
2018-09-08T19:41:42.184Z,54.50
2018-09-08T19:44:09.023Z,54.50
2018-09-08T19:46:35.853Z,54.50
2018-09-08T19:49:02.708Z,54.70
2018-09-08T19:51:29.530Z,54.50
2018-09-08T19:56:36.308Z,54.60
2018-09-08T19:59:03.160Z,54.50
2018-09-08T20:01:30.014Z,55.00
2018-09-08T20:03:56.928Z,54.50
2018-09-08T20:06:23.738Z,54.40
2018-09-08T20:08:50.595Z,54.50
2018-09-08T20:11:17.441Z,54.40
2018-09-08T20:13:44.439Z,54.50
2018-09-08T20:16:11.301Z,54.60
2018-09-08T20:18:38.237Z,54.60
2018-09-08T20:21:05.073Z,54.60
2018-09-08T20:23:31.899Z,54.60
2018-09-08T20:25:58.881Z,54.60
2018-09-08T20:28:25.694Z,54.50
2018-09-08T20:30:52.521Z,54.50
2018-09-08T20:33:19.349Z,54.60
2018-09-08T20:35:46.258Z,54.50
2018-09-08T20:38:13.078Z,54.40
2018-09-08T20:40:39.990Z,54.60
2018-09-08T20:43:07.158Z,54.40
2018-09-08T20:45:34.039Z,54.50
2018-09-08T20:48:00.879Z,54.60
2018-09-08T20:50:27.768Z,54.60
2018-09-08T20:52:54.682Z,54.60
2018-09-08T20:55:21.663Z,54.70
2018-09-08T20:57:48.557Z,54.80
2018-09-08T21:00:16.002Z,54.90
2018-09-08T21:02:43.981Z,54.90
2018-09-08T21:05:12.500Z,54.90
2018-09-08T21:07:39.886Z,55.00
2018-09-08T21:10:06.789Z,55.00
2018-09-08T21:12:33.837Z,54.80
2018-09-08T21:15:01.223Z,55.00
2018-09-08T21:17:28.215Z,55.10
2018-09-08T21:19:55.033Z,54.90
2018-09-08T21:22:21.875Z,54.90
2018-09-08T21:24:48.894Z,54.90
2018-09-08T21:27:15.678Z,54.80
2018-09-08T21:29:43.063Z,54.80
2018-09-08T21:32:10.415Z,54.80
2018-09-08T21:34:37.513Z,54.80
2018-09-08T21:37:04.330Z,54.80
2018-09-08T21:39:31.362Z,54.70
2018-09-08T21:41:58.318Z,55.30
2018-09-08T21:44:25.241Z,54.70
2018-09-08T21:46:52.454Z,54.60
2018-09-08T21:49:19.395Z,54.60
2018-09-08T21:51:46.265Z,54.60
2018-09-08T21:54:13.930Z,54.60
2018-09-08T21:56:40.790Z,54.60
2018-09-08T21:59:07.710Z,54.60
2018-09-08T22:01:34.885Z,54.50
2018-09-08T22:04:01.729Z,54.50
2018-09-08T22:06:28.685Z,54.50
2018-09-08T22:08:55.770Z,54.40
2018-09-08T22:11:22.565Z,54.40
2018-09-08T22:13:49.571Z,54.30
2018-09-08T22:16:16.435Z,54.30
2018-09-08T22:18:43.526Z,54.40
2018-09-08T22:21:10.529Z,54.30
2018-09-08T22:23:37.358Z,54.30
2018-09-08T22:26:04.484Z,54.20
2018-09-08T22:28:31.347Z,54.20
2018-09-08T22:30:58.289Z,54.10
2018-09-08T22:33:25.211Z,54.10
2018-09-08T22:35:52.256Z,54.10
2018-09-08T22:38:19.081Z,54.10
2018-09-08T22:40:45.918Z,54.10
2018-09-08T22:43:12.783Z,54.10
2018-09-08T22:45:41.766Z,54.10
2018-09-08T22:48:11.273Z,54.10
2018-09-08T22:50:38.103Z,54.00
2018-09-08T22:53:04.940Z,54.00
2018-09-08T22:55:31.867Z,54.00
2018-09-08T22:57:59.033Z,54.10
2018-09-08T23:00:25.908Z,54.00
2018-09-08T23:02:52.728Z,53.90
2018-09-08T23:05:19.755Z,53.90
2018-09-08T23:07:46.678Z,54.00
2018-09-08T23:10:13.542Z,53.90
2018-09-08T23:12:40.522Z,53.90
2018-09-08T23:15:07.486Z,53.80
2018-09-08T23:17:34.324Z,53.80
2018-09-08T23:20:01.133Z,53.70
2018-09-08T23:22:27.989Z,53.80
2018-09-08T23:24:55.171Z,53.70
2018-09-08T23:27:22.005Z,53.80
2018-09-08T23:29:48.953Z,53.70
2018-09-08T23:32:16.013Z,53.70
2018-09-08T23:34:42.999Z,53.80
2018-09-08T23:37:09.815Z,54.30
2018-09-08T23:39:36.649Z,53.70
2018-09-08T23:42:03.581Z,53.70
2018-09-08T23:44:30.666Z,53.70
2018-09-08T23:46:57.494Z,53.70
2018-09-08T23:49:24.321Z,53.60
2018-09-08T23:51:51.154Z,53.70
2018-09-08T23:54:18.171Z,53.70
2018-09-08T23:56:44.991Z,53.70
2018-09-08T23:59:11.808Z,53.70
